Time;durP1;ratioP1;P1;durP2;ratioP2;P2;SDS_P1;SDS_P2;PMS_P1;PMS_P2;Temp;Humidity;BMP_temperature;BMP_pressure;BME280_temperature;BME280_humidity;BME280_pressure;Samples;Min_cycle;Max_cycle;Signal;HPM_P1;HPM_P2
2021/06/03 00:00:01;;;;;;;3.50;3.27;;;17.20;99.00;;;;;;5054129;28;20964;-84
2021/06/03 00:02:27;;;;;;;3.53;3.33;;;17.20;99.90;;;;;;5054039;28;20445;-84
2021/06/03 00:04:53;;;;;;;3.83;3.20;;;17.20;99.90;;;;;;5055101;28;20461;-84
2021/06/03 00:07:21;;;;;;;3.80;3.50;;;17.20;99.90;;;;;;5054280;28;20486;-85
2021/06/03 00:09:47;;;;;;;3.43;3.23;;;17.20;99.90;;;;;;5053749;28;20486;-84
2021/06/03 00:12:15;;;;;;;4.07;3.80;;;17.20;99.90;;;;;;5053677;28;20478;-85
2021/06/03 00:14:41;;;;;;;3.80;3.50;;;17.20;99.90;;;;;;5054036;28;20457;-85
2021/06/03 00:17:07;;;;;;;3.83;3.33;;;17.30;99.90;;;;;;5054179;28;20449;-84
2021/06/03 00:19:34;;;;;;;4.63;3.60;;;17.30;99.90;;;;;;5053662;28;20489;-84
2021/06/03 00:22:00;;;;;;;3.70;3.40;;;17.30;99.90;;;;;;5053804;28;20473;-84
2021/06/03 00:24:26;;;;;;;3.80;3.50;;;17.30;99.90;;;;;;5053833;28;20462;-85
2021/06/03 00:26:52;;;;;;;3.57;3.27;;;17.30;99.90;;;;;;5053794;28;20442;-85
2021/06/03 00:29:20;;;;;;;4.23;3.83;;;17.30;99.90;;;;;;5053800;28;20445;-85
2021/06/03 00:31:46;;;;;;;5.53;3.73;;;17.30;99.90;;;;;;5053325;28;20457;-85
2021/06/03 00:34:12;;;;;;;3.27;3.07;;;17.20;99.90;;;;;;5053702;28;20804;-85
2021/06/03 00:36:39;;;;;;;4.00;3.70;;;17.30;99.90;;;;;;5053846;28;20503;-84
2021/06/03 00:39:06;;;;;;;3.93;3.73;;;17.30;99.90;;;;;;5053538;28;20481;-84
2021/06/03 00:41:32;;;;;;;3.90;3.70;;;17.20;99.90;;;;;;5053397;28;20466;-84
2021/06/03 00:44:00;;;;;;;3.93;3.60;;;17.20;99.90;;;;;;5053531;28;20442;-84
2021/06/03 00:46:28;;;;;;;4.10;3.80;;;17.20;99.90;;;;;;5053833;28;20454;-84
2021/06/03 00:48:55;;;;;;;4.43;4.07;;;17.10;99.90;;;;;;5053650;28;20438;-85
2021/06/03 00:51:21;;;;;;;5.13;3.50;;;17.10;99.90;;;;;;5053882;28;20474;-85
2021/06/03 00:53:48;;;;;;;4.13;3.93;;;17.10;99.90;;;;;;5057741;28;20476;-85
2021/06/03 00:56:14;;;;;;;4.03;3.63;;;17.10;99.90;;;;;;5057716;28;20446;-85
2021/06/03 00:58:40;;;;;;;3.80;3.60;;;17.10;99.90;;;;;;5057624;28;20508;-86
2021/06/03 01:01:06;;;;;;;3.97;3.67;;;17.00;99.90;;;;;;5057348;28;20450;-85
2021/06/03 01:03:36;;;;;;;3.93;3.63;;;17.00;99.90;;;;;;5057582;28;20445;-85
2021/06/03 01:06:05;;;;;;;4.57;4.23;;;16.90;99.90;;;;;;5057577;28;20438;-85
2021/06/03 01:08:35;;;;;;;4.73;4.33;;;16.90;99.90;;;;;;5057369;28;20434;-86
2021/06/03 01:11:06;;;;;;;4.63;4.33;;;16.80;99.90;;;;;;5057468;28;20462;-85
2021/06/03 01:13:40;;;;;;;4.70;3.70;;;16.80;99.90;;;;;;5057564;28;20528;-86
2021/06/03 01:16:07;;;;;;;4.13;3.83;;;16.70;99.90;;;;;;5057450;28;20411;-85
2021/06/03 01:18:38;;;;;;;4.03;3.63;;;16.70;99.90;;;;;;5060855;28;20552;-85
2021/06/03 01:21:07;;;;;;;4.40;4.10;;;16.60;99.90;;;;;;5057110;28;20465;-86
2021/06/03 01:23:38;;;;;;;4.20;3.90;;;16.50;99.90;;;;;;5057288;28;20441;-86
2021/06/03 01:26:06;;;;;;;4.47;4.10;;;16.50;99.90;;;;;;5057104;28;20434;-86
2021/06/03 01:28:34;;;;;;;4.90;4.60;;;16.50;99.90;;;;;;5057964;28;20445;-85
2021/06/03 01:31:01;;;;;;;4.30;4.00;;;16.50;99.90;;;;;;5057014;28;20469;-86
2021/06/03 01:33:29;;;;;;;4.70;4.40;;;16.50;99.90;;;;;;5056829;28;20450;-86
2021/06/03 01:35:58;;;;;;;4.50;4.20;;;16.50;99.90;;;;;;5057121;28;20449;-86
2021/06/03 01:38:27;;;;;;;4.77;4.37;;;16.50;99.90;;;;;;5056614;28;20485;-85
2021/06/03 01:40:54;;;;;;;4.10;3.80;;;16.60;99.90;;;;;;5056682;28;20454;-85
2021/06/03 01:43:24;;;;;;;4.47;4.17;;;16.60;99.90;;;;;;5056890;28;20433;-85
2021/06/03 01:45:51;;;;;;;4.30;3.90;;;16.60;99.90;;;;;;5056982;28;20483;-85
2021/06/03 01:48:21;;;;;;;3.97;3.70;;;16.60;99.90;;;;;;5056595;28;20449;-83
2021/06/03 01:50:49;;;;;;;4.83;3.90;;;16.60;99.90;;;;;;5056242;28;20462;-83
2021/06/03 01:53:16;;;;;;;4.60;4.20;;;16.70;99.90;;;;;;5056482;28;20442;-84
2021/06/03 01:55:42;;;;;;;3.90;3.60;;;16.70;99.90;;;;;;5056299;28;20445;-84
2021/06/03 01:58:08;;;;;;;3.70;3.40;;;16.70;99.90;;;;;;5056309;28;20485;-84
2021/06/03 02:00:37;;;;;;;3.93;3.73;;;16.70;99.90;;;;;;5056240;28;20536;-84
2021/06/03 02:03:03;;;;;;;5.40;3.50;;;16.70;99.90;;;;;;5055469;28;20449;-84
2021/06/03 02:05:30;;;;;;;4.00;3.70;;;16.70;99.90;;;;;;5055697;28;20461;-83
2021/06/03 02:07:56;;;;;;;4.00;3.70;;;16.70;99.90;;;;;;5056435;28;20476;-84
2021/06/03 02:10:24;;;;;;;3.33;3.20;;;16.70;99.90;;;;;;5056037;28;20441;-83
2021/06/03 02:12:55;;;;;;;4.13;3.90;;;16.70;99.90;;;;;;5056065;28;20453;-84
2021/06/03 02:15:23;;;;;;;3.67;3.47;;;16.70;99.90;;;;;;5056277;28;20914;-84
2021/06/03 02:17:59;;;;;;;4.23;3.90;;;16.70;99.90;;;;;;5056400;28;20937;-83
2021/06/03 02:20:29;;;;;;;3.60;3.40;;;16.80;99.90;;;;;;5056130;28;20474;-83
2021/06/03 02:22:56;;;;;;;4.33;4.03;;;16.80;99.90;;;;;;5056084;28;20464;-82
2021/06/03 02:25:24;;;;;;;3.97;3.57;;;16.70;99.90;;;;;;5055606;28;20446;-83
2021/06/03 02:27:51;;;;;;;3.53;3.33;;;16.80;99.90;;;;;;5055998;28;20470;-83
2021/06/03 02:30:19;;;;;;;3.87;3.57;;;16.80;99.90;;;;;;5055921;28;20872;-83
2021/06/03 02:32:46;;;;;;;3.87;3.60;;;16.80;99.90;;;;;;5055980;28;20446;-83
2021/06/03 02:35:14;;;;;;;3.80;3.60;;;16.80;99.90;;;;;;5055664;28;20930;-83
2021/06/03 02:37:41;;;;;;;4.37;3.97;;;16.80;99.90;;;;;;5055800;28;20977;-83
2021/06/03 02:40:11;;;;;;;4.20;3.90;;;16.80;99.90;;;;;;5055644;28;20477;-83
2021/06/03 02:42:40;;;;;;;4.57;4.00;;;16.80;99.90;;;;;;5055722;28;20449;-84
2021/06/03 02:45:10;;;;;;;4.43;4.03;;;16.80;99.90;;;;;;5055592;28;20434;-84
2021/06/03 02:47:38;;;;;;;4.30;4.10;;;16.80;99.90;;;;;;5055820;28;20487;-84
2021/06/03 02:50:06;;;;;;;4.80;4.33;;;16.80;99.90;;;;;;5055687;28;20452;-84
2021/06/03 02:52:35;;;;;;;4.23;3.93;;;16.80;99.90;;;;;;5055219;28;20434;-84
2021/06/03 02:55:01;;;;;;;4.67;4.27;;;16.80;99.90;;;;;;5055268;28;20442;-85
2021/06/03 02:57:27;;;;;;;5.60;4.13;;;16.80;99.90;;;;;;5055130;28;20446;-85
2021/06/03 02:59:53;;;;;;;4.30;4.00;;;16.90;99.90;;;;;;5055251;28;20488;-84
2021/06/03 03:02:20;;;;;;;4.30;4.00;;;16.90;99.90;;;;;;5055114;28;20453;-85
2021/06/03 03:04:46;;;;;;;6.80;4.07;;;16.90;99.90;;;;;;5055081;28;20437;-85
2021/06/03 03:07:13;;;;;;;4.90;4.50;;;16.90;99.90;;;;;;5055065;28;20465;-85
2021/06/03 03:09:40;;;;;;;5.13;4.73;;;16.90;99.90;;;;;;5054900;28;20430;-84
2021/06/03 03:12:07;;;;;;;4.50;4.20;;;16.90;99.90;;;;;;5054966;28;20469;-84
2021/06/03 03:14:34;;;;;;;5.27;4.77;;;16.90;99.90;;;;;;5055436;28;20442;-85
2021/06/03 03:17:00;;;;;;;5.70;4.93;;;16.90;99.90;;;;;;5055005;28;20438;-84
2021/06/03 03:19:26;;;;;;;6.40;4.13;;;16.90;99.90;;;;;;5054940;28;20481;-84
2021/06/03 03:21:53;;;;;;;4.80;4.50;;;16.90;99.90;;;;;;5054737;28;20469;-84
2021/06/03 03:24:19;;;;;;;4.80;4.40;;;16.90;99.90;;;;;;5054523;28;20431;-84
2021/06/03 03:26:46;;;;;;;4.30;4.00;;;16.90;99.90;;;;;;5054801;28;20449;-84
2021/06/03 03:29:12;;;;;;;4.47;4.07;;;16.90;99.90;;;;;;5054727;28;20446;-84
2021/06/03 03:31:39;;;;;;;4.83;4.37;;;16.90;99.90;;;;;;5054670;28;20453;-84
2021/06/03 03:34:05;;;;;;;5.00;4.60;;;16.80;99.90;;;;;;5054579;28;20437;-84
2021/06/03 03:36:32;;;;;;;4.37;4.07;;;16.80;99.90;;;;;;5054782;28;20464;-83
2021/06/03 03:38:58;;;;;;;5.00;4.70;;;16.80;99.90;;;;;;5054058;28;20489;-84
2021/06/03 03:41:25;;;;;;;5.07;4.67;;;16.80;99.90;;;;;;5054192;28;20481;-85
2021/06/03 03:43:53;;;;;;;4.50;4.20;;;16.80;99.90;;;;;;5054198;28;20441;-84
2021/06/03 03:46:19;;;;;;;5.07;4.70;;;16.80;99.90;;;;;;5054205;28;20524;-84
2021/06/03 03:48:45;;;;;;;4.27;3.97;;;16.80;99.90;;;;;;5054415;28;20507;-84
2021/06/03 03:51:13;;;;;;;5.03;4.70;;;16.90;99.90;;;;;;5054208;28;20457;-84
2021/06/03 03:53:40;;;;;;;4.40;4.10;;;16.90;99.90;;;;;;5054061;28;20454;-84
2021/06/03 03:56:06;;;;;;;3.83;3.63;;;16.90;99.90;;;;;;5054338;28;20453;-84
2021/06/03 03:58:36;;;;;;;4.23;3.93;;;16.90;99.90;;;;;;5054184;28;20485;-84
2021/06/03 04:01:04;;;;;;;4.30;3.90;;;16.90;99.90;;;;;;5054247;28;20466;-84
2021/06/03 04:03:30;;;;;;;4.50;4.10;;;16.90;99.90;;;;;;5054330;28;20461;-84
2021/06/03 04:05:57;;;;;;;4.30;4.00;;;16.90;99.90;;;;;;5054304;28;20442;-84
2021/06/03 04:08:24;;;;;;;4.60;4.20;;;16.90;99.90;;;;;;5054266;28;20442;-84
2021/06/03 04:10:51;;;;;;;5.50;4.10;;;16.90;99.90;;;;;;5053850;28;20465;-84
2021/06/03 04:13:17;;;;;;;5.00;4.70;;;16.90;99.90;;;;;;5054072;28;20430;-84
2021/06/03 04:15:43;;;;;;;4.73;4.43;;;16.80;99.90;;;;;;5053750;28;20456;-84
2021/06/03 04:18:11;;;;;;;4.50;4.10;;;16.80;99.90;;;;;;5053924;28;20450;-84
2021/06/03 04:20:37;;;;;;;3.90;3.50;;;16.80;99.90;;;;;;5053608;28;20458;-84
2021/06/03 04:23:04;;;;;;;4.50;4.10;;;16.90;99.90;;;;;;5053940;28;20456;-84
2021/06/03 04:25:30;;;;;;;4.43;4.00;;;16.90;99.90;;;;;;5054027;28;20458;-84
2021/06/03 04:27:57;;;;;;;4.50;4.20;;;16.90;99.90;;;;;;5056651;28;20426;-84
2021/06/03 04:30:25;;;;;;;4.43;4.10;;;16.90;99.90;;;;;;5057990;28;20440;-84
2021/06/03 04:32:52;;;;;;;3.87;3.67;;;16.90;99.90;;;;;;5057654;28;20450;-84
2021/06/03 04:35:22;;;;;;;4.60;4.20;;;17.00;99.90;;;;;;5058573;28;20449;-84
2021/06/03 04:37:49;;;;;;;4.43;4.13;;;17.00;99.90;;;;;;5057797;28;20489;-81
2021/06/03 04:40:17;;;;;;;3.60;3.40;;;17.10;99.90;;;;;;5057240;28;20481;-83
2021/06/03 04:42:44;;;;;;;4.00;3.70;;;17.10;99.90;;;;;;5057877;28;20454;-83
2021/06/03 04:45:12;;;;;;;3.63;3.43;;;17.20;99.90;;;;;;5057754;28;20449;-83
2021/06/03 04:47:39;;;;;;;10.93;4.43;;;17.20;99.90;;;;;;5057757;28;20454;-83
2021/06/03 04:50:06;;;;;;;4.47;4.07;;;17.30;99.90;;;;;;5057236;28;20437;-83
2021/06/03 04:52:33;;;;;;;4.23;4.00;;;17.30;99.90;;;;;;5057769;28;20821;-83
2021/06/03 04:55:01;;;;;;;3.63;3.43;;;17.40;99.90;;;;;;5057597;28;20441;-83
2021/06/03 04:57:29;;;;;;;4.50;4.10;;;17.40;99.90;;;;;;5057475;28;20460;-83
2021/06/03 04:59:55;;;;;;;4.40;4.07;;;17.40;99.90;;;;;;5057614;28;20481;-83
2021/06/03 05:02:22;;;;;;;4.53;4.23;;;17.40;99.90;;;;;;5057177;28;20503;-83
2021/06/03 05:04:48;;;;;;;3.80;3.53;;;17.50;99.90;;;;;;5057520;28;20500;-83
2021/06/03 05:07:14;;;;;;;4.50;4.10;;;17.50;99.90;;;;;;5057527;28;20456;-82
2021/06/03 05:09:42;;;;;;;4.47;4.07;;;17.50;99.90;;;;;;5057507;28;20449;-83
2021/06/03 05:12:09;;;;;;;4.27;3.87;;;17.50;99.90;;;;;;5057416;28;20457;-84
2021/06/03 05:14:36;;;;;;;7.43;3.73;;;17.50;99.90;;;;;;5057537;28;20456;-84
2021/06/03 05:17:03;;;;;;;3.93;3.63;;;17.50;99.90;;;;;;5056760;28;20429;-84
2021/06/03 05:19:29;;;;;;;3.70;3.40;;;17.50;99.90;;;;;;5057007;28;20825;-84
2021/06/03 05:21:56;;;;;;;3.80;3.60;;;17.60;99.90;;;;;;5056886;28;20519;-84
2021/06/03 05:24:22;;;;;;;3.80;3.50;;;17.60;99.90;;;;;;5056935;28;20442;-84
2021/06/03 05:26:49;;;;;;;3.87;3.57;;;17.60;99.90;;;;;;5057449;28;20492;-84
2021/06/03 05:29:17;;;;;;;4.17;3.90;;;17.70;99.90;;;;;;5056932;28;20450;-84
2021/06/03 05:31:44;;;;;;;5.03;4.33;;;17.70;99.90;;;;;;5056853;28;20458;-84
2021/06/03 05:34:11;;;;;;;3.70;3.50;;;17.70;99.90;;;;;;5057084;28;20476;-84
2021/06/03 05:36:38;;;;;;;4.37;4.07;;;17.70;99.90;;;;;;5056761;28;20917;-84
2021/06/03 05:39:06;;;;;;;3.50;3.30;;;17.80;99.90;;;;;;5056226;28;20500;-84
2021/06/03 05:41:33;;;;;;;3.67;3.40;;;17.80;99.90;;;;;;5056781;28;20512;-83
2021/06/03 05:44:00;;;;;;;3.80;3.60;;;17.90;99.90;;;;;;5057010;28;20446;-84
2021/06/03 05:46:27;;;;;;;3.30;3.10;;;17.90;99.90;;;;;;5056687;28;20426;-85
2021/06/03 05:48:53;;;;;;;3.70;3.50;;;17.90;99.90;;;;;;5056469;28;20472;-85
2021/06/03 05:51:19;;;;;;;3.80;3.33;;;18.00;99.90;;;;;;5056585;28;20826;-84
2021/06/03 05:53:45;;;;;;;4.37;4.07;;;18.10;99.90;;;;;;5056575;28;20457;-84
2021/06/03 05:56:12;;;;;;;3.40;3.10;;;18.10;99.90;;;;;;5056375;28;20451;-83
2021/06/03 05:58:38;;;;;;;3.93;3.70;;;18.20;99.90;;;;;;5056103;28;20504;-84
2021/06/03 06:01:05;;;;;;;3.60;3.40;;;18.40;99.90;;;;;;5056120;28;20470;-84
2021/06/03 06:03:37;;;;;;;4.57;3.30;;;18.50;99.90;;;;;;5056399;28;20462;-84
2021/06/03 06:06:22;;;;;;;4.00;3.30;;;18.70;99.90;;;;;;5056533;28;20430;-85
2021/06/03 06:08:49;;;;;;;5.63;5.17;;;19.00;99.90;;;;;;5057137;28;20862;-85
2021/06/03 06:11:15;;;;;;;3.33;3.00;;;19.40;99.90;;;;;;5056029;28;20453;-85
2021/06/03 06:13:43;;;;;;;2.90;2.80;;;19.80;99.90;;;;;;5056304;28;20446;-85
2021/06/03 06:16:11;;;;;;;2.77;2.60;;;20.20;99.90;;;;;;5056099;28;20917;-85
2021/06/03 06:18:37;;;;;;;3.17;2.83;;;20.40;99.90;;;;;;5056108;28;20441;-85
2021/06/03 06:21:04;;;;;;;2.83;2.63;;;20.60;99.90;;;;;;5056146;28;20466;-85
2021/06/03 06:23:34;;;;;;;3.30;3.07;;;20.80;99.90;;;;;;5057590;28;20523;-85
2021/06/03 06:26:00;;;;;;;2.60;2.50;;;21.50;99.90;;;;;;5056918;28;20449;-85
2021/06/03 06:28:26;;;;;;;3.42;3.22;;;22.50;99.90;;;;;;5055142;28;20998;-83
2021/06/03 06:30:53;;;;;;;2.45;2.25;;;23.50;99.90;;;;;;5054928;28;20218;-81
2021/06/03 06:33:20;;;;;;;2.40;2.30;;;24.20;99.90;;;;;;5055233;28;20282;-82
2021/06/03 06:35:49;;;;;;;2.47;2.28;;;24.60;99.90;;;;;;5055861;28;20618;-82
2021/06/03 06:38:16;;;;;;;2.35;2.25;;;24.40;99.90;;;;;;5055412;28;20313;-82
2021/06/03 06:40:43;;;;;;;2.65;2.50;;;24.40;99.90;;;;;;5055414;28;20773;-83
2021/06/03 06:43:09;;;;;;;2.47;2.28;;;24.40;99.90;;;;;;5056244;28;20210;-83
2021/06/03 06:45:37;;;;;;;2.38;2.28;;;24.40;99.90;;;;;;5056218;28;20187;-82
2021/06/03 06:48:05;;;;;;;2.33;2.13;;;24.50;99.70;;;;;;5055064;28;20658;-82
2021/06/03 06:50:34;;;;;;;2.70;2.50;;;24.50;99.10;;;;;;5054913;28;20692;-86
2021/06/03 06:53:01;;;;;;;2.85;2.65;;;24.30;98.60;;;;;;5056516;28;20210;-85
2021/06/03 06:55:27;;;;;;;2.55;2.45;;;24.20;98.70;;;;;;5055911;28;20696;-85
2021/06/03 06:57:55;;;;;;;2.90;2.67;;;24.20;98.90;;;;;;5055136;28;20198;-85
2021/06/03 07:00:23;;;;;;;2.58;2.38;;;24.40;98.90;;;;;;5055180;28;20219;-84
2021/06/03 07:02:49;;;;;;;2.63;2.42;;;24.60;98.50;;;;;;5055301;28;20286;-85
2021/06/03 07:05:16;;;;;;;3.05;2.55;;;25.10;97.90;;;;;;5055213;28;20626;-85
2021/06/03 07:07:44;;;;;;;2.67;2.58;;;25.60;96.70;;;;;;5054955;28;20194;-83
2021/06/03 07:10:12;;;;;;;2.55;1.90;;;26.20;94.60;;;;;;5054901;28;20199;-85
2021/06/03 07:12:39;;;;;;;2.35;2.03;;;26.70;93.00;;;;;;5054829;28;20195;-86
2021/06/03 07:15:08;;;;;;;2.47;2.25;;;26.70;92.10;;;;;;5054740;28;20198;-84
2021/06/03 07:17:35;;;;;;;2.08;1.98;;;26.40;91.80;;;;;;5055084;28;20198;-85
2021/06/03 07:20:02;;;;;;;2.28;2.17;;;26.00;92.10;;;;;;5054832;28;20217;-85
2021/06/03 07:22:28;;;;;;;1.90;1.90;;;26.00;92.50;;;;;;5054911;28;20223;-85
2021/06/03 07:24:55;;;;;;;2.45;2.00;;;26.20;92.10;;;;;;5055178;28;20204;-85
2021/06/03 07:27:22;;;;;;;2.20;2.05;;;27.00;91.00;;;;;;5054656;28;20199;-85
2021/06/03 07:29:48;;;;;;;2.35;2.15;;;28.20;87.70;;;;;;5054751;28;20228;-85
2021/06/03 07:32:14;;;;;;;1.80;1.70;;;29.70;80.50;;;;;;5054655;28;20760;-86
2021/06/03 07:34:40;;;;;;;2.92;2.70;;;30.80;74.60;;;;;;5054331;28;20196;-85
2021/06/03 07:37:07;;;;;;;1.88;1.77;;;31.20;70.00;;;;;;5054946;28;20240;-85
2021/06/03 07:39:33;;;;;;;2.08;1.98;;;30.80;66.40;;;;;;5054506;28;20211;-84
2021/06/03 07:42:01;;;;;;;1.77;1.67;;;30.50;66.50;;;;;;5055532;28;20217;-85
2021/06/03 07:44:27;;;;;;;1.95;1.85;;;29.80;68.20;;;;;;5055751;28;20210;-86
2021/06/03 07:46:53;;;;;;;2.15;1.95;;;29.10;67.70;;;;;;5054871;28;20213;-85
2021/06/03 07:49:19;;;;;;;3.17;2.42;;;28.60;70.40;;;;;;5055680;28;20202;-85
2021/06/03 07:51:45;;;;;;;2.17;1.95;;;28.10;73.50;;;;;;5056056;28;20234;-84
2021/06/03 07:54:12;;;;;;;7.03;1.80;;;27.70;73.40;;;;;;5055283;28;20195;-86
2021/06/03 07:56:39;;;;;;;2.08;1.98;;;27.40;73.10;;;;;;5055387;28;20256;-84
2021/06/03 07:59:07;;;;;;;3.35;2.53;;;27.20;74.60;;;;;;5054764;28;20215;-85
2021/06/03 08:01:33;;;;;;;2.28;2.00;;;27.30;73.90;;;;;;5053889;28;20686;-86
2021/06/03 08:04:00;;;;;;;2.15;2.05;;;27.40;73.30;;;;;;5055054;28;20193;-86
2021/06/03 08:06:26;;;;;;;2.00;1.77;;;27.20;73.30;;;;;;5054477;28;20664;-81
2021/06/03 08:08:52;;;;;;;1.58;1.48;;;27.10;72.30;;;;;;5053746;28;20206;-84
2021/06/03 08:11:18;;;;;;;2.63;1.95;;;26.70;72.60;;;;;;5053638;28;20218;-81
2021/06/03 08:13:44;;;;;;;2.00;1.90;;;26.60;73.50;;;;;;5053110;28;20194;-80
2021/06/03 08:16:12;;;;;;;1.90;1.80;;;26.50;72.80;;;;;;5053409;28;20202;-83
2021/06/03 08:18:38;;;;;;;2.35;2.15;;;26.50;73.40;;;;;;5053222;28;20203;-83
2021/06/03 08:21:06;;;;;;;2.30;2.20;;;26.60;73.50;;;;;;5053157;28;20233;-81
2021/06/03 08:23:32;;;;;;;1.75;1.65;;;26.50;74.70;;;;;;5053264;28;20210;-81
2021/06/03 08:25:59;;;;;;;2.40;2.28;;;26.40;75.90;;;;;;5052918;28;20218;-82
2021/06/03 08:28:27;;;;;;;2.00;1.90;;;26.50;75.90;;;;;;5053019;28;20715;-81
2021/06/03 08:30:56;;;;;;;1.83;1.73;;;26.90;71.70;;;;;;5052997;28;20273;-81
2021/06/03 08:33:24;;;;;;;1.48;1.48;;;27.30;72.50;;;;;;5053193;28;20546;-80
2021/06/03 08:35:57;;;;;;;1.95;1.75;;;27.60;71.50;;;;;;5053057;28;20191;-83
2021/06/03 08:38:24;;;;;;;1.75;1.65;;;28.70;69.80;;;;;;5052940;28;20249;-80
2021/06/03 08:40:53;;;;;;;4.97;2.10;;;30.30;64.80;;;;;;5052532;28;20703;-80
2021/06/03 08:43:21;;;;;;;1.65;1.55;;;31.50;61.10;;;;;;5053000;28;20198;-80
2021/06/03 08:45:48;;;;;;;1.98;1.88;;;32.20;57.50;;;;;;5053138;28;20204;-81
2021/06/03 08:48:15;;;;;;;1.35;1.35;;;32.00;57.10;;;;;;5053075;28;20187;-81
2021/06/03 08:50:46;;;;;;;1.88;1.77;;;32.10;56.70;;;;;;5053032;28;20227;-81
2021/06/03 08:53:14;;;;;;;2.22;1.80;;;32.10;56.50;;;;;;5052666;28;20562;-80
2021/06/03 08:58:27;;;;;;;2.85;1.95;;;31.90;56.50;;;;;;5052928;28;20301;-81
2021/06/03 09:00:57;;;;;;;2.35;1.60;;;31.10;57.20;;;;;;5052828;28;20237;-81
2021/06/03 09:03:24;;;;;;;1.80;1.70;;;30.60;58.60;;;;;;5052653;28;20209;-80
2021/06/03 09:05:52;;;;;;;1.70;1.60;;;30.10;59.80;;;;;;5052965;28;20243;-81
2021/06/03 09:08:20;;;;;;;2.13;1.95;;;29.20;59.20;;;;;;5052883;28;20187;-81
2021/06/03 09:10:49;;;;;;;1.83;1.73;;;28.90;62.10;;;;;;5052712;28;20659;-82
2021/06/03 09:13:18;;;;;;;2.00;1.90;;;28.70;63.00;;;;;;5054271;28;20187;-81
2021/06/03 09:15:46;;;;;;;1.83;1.73;;;28.50;62.80;;;;;;5056559;28;20189;-80
2021/06/03 09:18:13;;;;;;;2.70;1.88;;;28.40;62.40;;;;;;5057737;28;20198;-81
2021/06/03 09:20:42;;;;;;;2.15;2.05;;;28.20;64.00;;;;;;5056474;28;20244;-79
2021/06/03 09:23:25;;;;;;;2.00;1.90;;;27.80;64.00;;;;;;5056871;28;20183;-81
2021/06/03 09:25:52;;;;;;;2.05;1.85;;;27.70;64.80;;;;;;5056182;28;20183;-80
2021/06/03 09:28:21;;;;;;;2.42;2.33;;;27.50;64.80;;;;;;5056310;28;20186;-79
2021/06/03 09:31:04;;;;;;;1.80;1.70;;;27.40;65.30;;;;;;5056151;28;20219;-80
2021/06/03 09:33:43;;;;;;;1.48;1.48;;;27.40;66.00;;;;;;5056297;28;20183;-80
2021/06/03 09:36:12;;;;;;;1.92;1.83;;;27.70;66.50;;;;;;5056032;28;20183;-80
2021/06/03 09:38:53;;;;;;;2.83;2.63;;;27.80;66.00;;;;;;5055752;28;20218;-81
2021/06/03 09:41:19;;;;;;;2.20;2.10;;;27.80;65.10;;;;;;5056091;28;20223;-81
2021/06/03 09:43:46;;;;;;;2.05;1.95;;;27.70;66.10;;;;;;5055738;28;20634;-79
2021/06/03 09:46:14;;;;;;;2.00;1.90;;;27.50;65.90;;;;;;5055641;28;20187;-81
2021/06/03 09:48:42;;;;;;;2.45;1.80;;;27.20;65.80;;;;;;5055918;28;20187;-79
2021/06/03 09:51:27;;;;;;;1.60;1.50;;;27.20;66.30;;;;;;5056713;28;20222;-80
2021/06/03 09:53:57;;;;;;;2.35;1.90;;;27.10;65.40;;;;;;5055983;28;20541;-79
2021/06/03 09:56:25;;;;;;;2.28;2.08;;;27.10;65.40;;;;;;5055659;28;20191;-79
2021/06/03 09:58:52;;;;;;;2.35;2.15;;;27.20;67.00;;;;;;5055537;28;20313;-80
2021/06/03 10:01:50;;;;;;;1.75;1.65;;;27.10;66.00;;;;;;5055542;28;20226;-79
2021/06/03 10:04:22;;;;;;;2.10;2.00;;;27.10;66.30;;;;;;5055644;28;20536;-81
2021/06/03 10:07:13;;;;;;;1.70;1.60;;;27.30;67.10;;;;;;5055564;28;20187;-79
2021/06/03 10:09:58;;;;;;;1.88;1.77;;;27.70;67.30;;;;;;5055742;28;20195;-78
2021/06/03 10:12:34;;;;;;;2.13;2.03;;;27.80;65.10;;;;;;5054953;28;20246;-79
2021/06/03 10:15:06;;;;;;;2.33;2.05;;;28.30;65.10;;;;;;5055363;28;20191;-81
2021/06/03 10:17:33;;;;;;;2.10;2.00;;;28.50;64.40;;;;;;5055049;28;20187;-81
2021/06/03 10:20:04;;;;;;;2.22;2.13;;;28.50;64.00;;;;;;5054855;28;20681;-80
2021/06/03 10:22:33;;;;;;;2.65;2.30;;;28.50;65.00;;;;;;5055111;28;20246;-81
2021/06/03 10:25:10;;;;;;;1.80;1.80;;;28.40;61.10;;;;;;5054083;28;20187;-80
2021/06/03 10:27:38;;;;;;;2.25;2.15;;;28.30;61.80;;;;;;5055137;28;20194;-81
2021/06/03 10:30:09;;;;;;;2.53;2.33;;;28.30;62.90;;;;;;5054772;28;20601;-81
2021/06/03 10:32:37;;;;;;;2.35;2.25;;;28.30;62.20;;;;;;5055124;28;20565;-80
2021/06/03 10:35:07;;;;;;;1.85;1.75;;;28.30;63.50;;;;;;5054789;28;20187;-82
2021/06/03 10:37:34;;;;;;;2.63;1.92;;;28.30;61.40;;;;;;5054544;28;20584;-81
2021/06/03 10:40:05;;;;;;;1.80;1.70;;;28.20;61.10;;;;;;5060354;28;20230;-82
2021/06/03 10:42:32;;;;;;;2.40;2.30;;;27.90;62.50;;;;;;5054779;28;20241;-81
2021/06/03 10:45:01;;;;;;;2.03;1.92;;;27.60;64.00;;;;;;5055400;28;20187;-82
2021/06/03 10:47:29;;;;;;;2.42;2.33;;;27.50;65.50;;;;;;5054732;28;20191;-84
2021/06/03 10:49:58;;;;;;;1.80;1.70;;;27.20;66.20;;;;;;5054745;28;20237;-82
2021/06/03 10:52:25;;;;;;;2.70;2.60;;;26.90;68.30;;;;;;5055069;28;20325;-82
2021/06/03 10:54:54;;;;;;;2.67;2.47;;;26.70;68.70;;;;;;5055015;28;20175;-82
2021/06/03 10:57:25;;;;;;;2.75;2.55;;;26.50;71.70;;;;;;5054554;28;20560;-81
2021/06/03 10:59:54;;;;;;;3.17;2.97;;;26.20;74.20;;;;;;5054483;28;20258;-82
2021/06/03 11:02:21;;;;;;;3.33;3.13;;;25.80;76.80;;;;;;5054387;28;20254;-81
2021/06/03 11:04:47;;;;;;;2.85;2.63;;;25.60;78.20;;;;;;5054436;28;20195;-81
2021/06/03 11:07:33;;;;;;;3.10;2.75;;;25.30;79.30;;;;;;5054432;28;20191;-80
2021/06/03 11:10:24;;;;;;;2.50;2.30;;;25.20;80.80;;;;;;5053839;28;20225;-81
2021/06/03 11:13:14;;;;;;;4.82;3.10;;;25.20;81.80;;;;;;5054279;28;20195;-81
2021/06/03 11:16:04;;;;;;;4.18;3.20;;;25.00;83.10;;;;;;5054209;28;20218;-80
2021/06/03 11:19:05;;;;;;;3.20;3.00;;;24.90;84.70;;;;;;5054264;28;20649;-80
2021/06/03 11:22:10;;;;;;;3.70;3.40;;;24.90;84.40;;;;;;5052144;28;20219;-81
2021/06/03 11:24:41;;;;;;;3.70;3.38;;;24.70;86.60;;;;;;5051960;28;20305;-81
2021/06/03 11:27:10;;;;;;;3.55;3.35;;;24.70;88.60;;;;;;5054034;28;20179;-81
2021/06/03 11:29:42;;;;;;;3.25;2.70;;;24.80;89.40;;;;;;5054853;28;20187;-81
2021/06/03 11:32:20;;;;;;;3.47;3.28;;;24.80;89.80;;;;;;5053981;28;20309;-81
2021/06/03 11:34:51;;;;;;;2.95;2.75;;;24.70;90.20;;;;;;5054811;28;20194;-81
2021/06/03 11:37:20;;;;;;;2.70;2.50;;;24.70;89.10;;;;;;5053248;28;20238;-81
2021/06/03 11:39:49;;;;;;;3.63;3.10;;;24.90;88.80;;;;;;5053671;28;20242;-80
2021/06/03 11:42:24;;;;;;;2.92;2.60;;;25.00;88.90;;;;;;5054117;28;20245;-80
2021/06/03 11:45:21;;;;;;;3.22;2.92;;;25.10;89.10;;;;;;5053906;28;20241;-81
2021/06/03 11:48:25;;;;;;;2.92;2.72;;;25.50;89.50;;;;;;5053838;28;20183;-82
2021/06/03 11:50:57;;;;;;;3.42;3.22;;;25.90;87.30;;;;;;5053684;28;20214;-81
2021/06/03 11:53:25;;;;;;;2.97;2.78;;;26.20;86.40;;;;;;5053744;28;20236;-82
2021/06/03 11:55:54;;;;;;;2.70;2.50;;;26.20;87.40;;;;;;5054530;28;20198;-82
2021/06/03 11:58:32;;;;;;;3.65;2.17;;;26.20;83.70;;;;;;5053391;28;20732;-82
2021/06/03 12:01:04;;;;;;;2.50;2.30;;;26.00;83.40;;;;;;5053328;28;20222;-82
2021/06/03 12:03:38;;;;;;;3.28;2.35;;;26.00;85.60;;;;;;5053365;28;20190;-81
2021/06/03 12:06:07;;;;;;;6.13;2.95;;;25.90;86.40;;;;;;5053399;28;20198;-82
2021/06/03 12:08:42;;;;;;;2.33;2.22;;;25.90;87.10;;;;;;5053480;28;20202;-81
2021/06/03 12:11:12;;;;;;;1.92;1.48;;;25.80;84.70;;;;;;5052856;28;20230;-79
2021/06/03 12:13:38;;;;;;;1.88;1.77;;;25.60;89.10;;;;;;5053176;28;20209;-79
2021/06/03 12:16:06;;;;;;;2.00;1.90;;;25.30;92.10;;;;;;5053006;28;20252;-81
2021/06/03 12:18:35;;;;;;;2.30;2.20;;;24.90;95.20;;;;;;5053152;28;20232;-80
2021/06/03 12:21:01;;;;;;;1.63;1.63;;;24.40;95.00;;;;;;5053122;28;20227;-80
2021/06/03 12:23:28;;;;;;;1.95;1.85;;;24.10;95.50;;;;;;5052966;28;20205;-80
2021/06/03 12:25:54;;;;;;;1.10;1.10;;;23.90;97.90;;;;;;5053025;28;20205;-79
2021/06/03 12:28:20;;;;;;;1.48;1.30;;;23.80;97.70;;;;;;5052927;28;20207;-79
2021/06/03 12:30:47;;;;;;;4.30;1.57;;;23.80;97.70;;;;;;5052834;28;20249;-79
2021/06/03 12:33:16;;;;;;;1.17;1.17;;;23.90;95.50;;;;;;5052488;28;20224;-79
2021/06/03 12:35:45;;;;;;;1.42;1.10;;;23.90;95.40;;;;;;5053146;28;20205;-79
2021/06/03 12:38:26;;;;;;;1.20;1.10;;;24.00;96.50;;;;;;5052549;28;20635;-80
2021/06/03 12:40:53;;;;;;;1.20;1.03;;;24.00;95.80;;;;;;5052737;28;20226;-79
2021/06/03 12:43:19;;;;;;;1.70;1.60;;;24.00;94.40;;;;;;5052752;28;20228;-79
2021/06/03 12:45:47;;;;;;;1.67;1.58;;;24.30;95.00;;;;;;5052481;28;20249;-79
2021/06/03 12:48:16;;;;;;;1.83;1.73;;;24.40;94.60;;;;;;5054004;28;20206;-79
2021/06/03 12:50:44;;;;;;;2.08;1.95;;;24.70;96.30;;;;;;5056724;28;20561;-80
2021/06/03 12:53:12;;;;;;;1.80;1.75;;;25.00;94.30;;;;;;5056761;28;20297;-79
2021/06/03 12:55:40;;;;;;;2.15;1.83;;;25.20;93.70;;;;;;5057356;28;20195;-80
2021/06/03 12:58:09;;;;;;;1.85;1.75;;;25.20;92.30;;;;;;5056755;28;20191;-81